Time;durP1;ratioP1;P1;durP2;ratioP2;P2;SDS_P1;SDS_P2;PMS_P1;PMS_P2;Temp;Humidity;BMP_temperature;BMP_pressure;BME280_temperature;BME280_humidity;BME280_pressure;Samples;Min_cycle;Max_cycle;Signal;HPM_P1;HPM_P2
2022/09/30 00:01:09;;;;;;;3.50;3.20;;;13.80;76.50;;;-142.21;100.00;112049.66;5054205;28;20458;-73
2022/09/30 00:03:36;;;;;;;5.27;3.50;;;13.80;76.40;;;-142.21;100.00;112049.66;5053910;28;20420;-72
2022/09/30 00:06:06;;;;;;;3.83;3.20;;;13.80;76.40;;;-142.21;100.00;112049.66;5054625;28;20451;-74
2022/09/30 00:08:34;;;;;;;3.50;3.20;;;13.80;76.50;;;-142.21;100.00;112049.66;5054190;28;20848;-73
2022/09/30 00:11:03;;;;;;;3.40;3.10;;;13.80;77.20;;;-142.21;100.00;112049.66;5006556;28;20919;-73
2022/09/30 00:13:32;;;;;;;3.80;3.27;;;13.80;76.50;;;-142.21;100.00;112049.66;5052691;28;20451;-73
2022/09/30 00:16:00;;;;;;;4.10;3.50;;;13.80;76.50;;;-142.21;100.00;112049.66;5054811;28;20448;-73
2022/09/30 00:18:30;;;;;;;3.87;3.40;;;13.80;76.50;;;-142.21;100.00;112049.66;5053006;28;20444;-73
2022/09/30 00:20:58;;;;;;;3.40;3.10;;;13.80;76.50;;;-142.21;100.00;112049.66;5054943;28;20455;-73
2022/09/30 00:23:26;;;;;;;3.40;3.10;;;13.80;76.50;;;-142.21;100.00;112049.66;5056421;28;20439;-73
2022/09/30 00:25:58;;;;;;;3.57;3.23;;;13.80;76.40;;;-142.21;100.00;112049.66;5054589;28;21021;-73
2022/09/30 00:28:26;;;;;;;3.63;3.20;;;13.80;76.50;;;-142.21;100.00;112049.66;5046521;28;20440;-73
2022/09/30 00:30:53;;;;;;;3.50;3.07;;;13.70;77.10;;;-142.21;100.00;112049.66;5051582;28;20769;-73
2022/09/30 00:33:21;;;;;;;3.47;3.17;;;13.70;76.40;;;-142.21;100.00;112049.66;5053475;28;20452;-73
2022/09/30 00:35:49;;;;;;;3.53;3.23;;;13.70;76.40;;;-142.21;100.00;112049.66;5053426;28;20452;-74
2022/09/30 00:38:18;;;;;;;3.00;2.70;;;13.70;76.30;;;-142.21;100.00;112049.66;5053128;28;20531;-74
2022/09/30 00:40:45;;;;;;;8.47;3.53;;;13.70;76.40;;;-142.21;100.00;112049.66;5053367;28;20436;-74
2022/09/30 00:43:16;;;;;;;4.83;3.10;;;13.70;76.40;;;-142.21;100.00;112049.66;5053408;28;20460;-74
2022/09/30 00:45:51;;;;;;;3.60;3.30;;;13.60;76.20;;;-142.21;100.00;112049.66;5052644;28;20456;-73
2022/09/30 00:48:27;;;;;;;5.50;3.10;;;13.60;76.30;;;-142.21;100.00;112049.66;5064325;28;20442;-73
2022/09/30 00:50:56;;;;;;;5.93;3.17;;;13.60;76.30;;;-142.21;100.00;112049.66;5052783;28;20486;-73
2022/09/30 00:53:30;;;;;;;4.10;3.03;;;13.60;76.30;;;-142.21;100.00;112049.66;5053189;28;20458;-74
2022/09/30 00:56:02;;;;;;;5.73;3.47;;;13.60;76.30;;;-142.21;100.00;112049.66;5053010;28;20476;-74
2022/09/30 00:58:36;;;;;;;3.30;3.00;;;13.60;76.30;;;-142.21;100.00;112049.66;5052723;28;20491;-73
2022/09/30 01:01:04;;;;;;;6.67;3.40;;;13.60;76.40;;;-142.21;100.00;112049.66;5052921;28;20564;-73
2022/09/30 01:03:36;;;;;;;3.27;2.97;;;13.60;76.30;;;-142.21;100.00;112049.66;5053478;28;20543;-73
2022/09/30 01:06:05;;;;;;;6.27;3.43;;;13.60;76.30;;;-142.21;100.00;112049.66;5053005;28;20448;-73
2022/09/30 01:08:37;;;;;;;4.17;3.13;;;13.60;76.30;;;-142.21;100.00;112049.66;5052836;28;20463;-74
2022/09/30 01:11:05;;;;;;;4.13;3.10;;;13.60;76.30;;;-142.21;100.00;112049.66;5018816;28;20488;-73
2022/09/30 01:13:37;;;;;;;3.33;3.03;;;13.60;76.30;;;-142.21;100.00;112049.66;5052826;28;21082;-74
2022/09/30 01:16:33;;;;;;;4.07;3.30;;;13.60;76.30;;;-142.21;100.00;112049.66;5053209;28;20424;-74
2022/09/30 01:19:50;;;;;;;5.40;3.27;;;13.60;76.30;;;-142.21;100.00;112049.66;5052152;28;20532;-74
2022/09/30 01:22:40;;;;;;;5.10;3.13;;;13.50;76.40;;;-142.21;100.00;112049.66;5039974;28;20514;-74
2022/09/30 01:25:53;;;;;;;3.83;2.70;;;13.50;76.60;;;-142.21;100.00;112049.66;5052601;28;21308;-74
2022/09/30 01:29:17;;;;;;;5.80;3.30;;;13.40;76.60;;;-142.21;100.00;112049.66;5052569;28;20443;-74
2022/09/30 01:31:57;;;;;;;4.10;3.13;;;13.30;77.20;;;-142.21;100.00;112049.66;5029132;28;20818;-74
2022/09/30 01:34:42;;;;;;;6.77;3.37;;;13.30;77.30;;;-142.21;100.00;112049.66;5052644;28;20442;-74
2022/09/30 01:37:24;;;;;;;4.47;3.70;;;13.30;77.60;;;-142.21;100.00;112049.66;5051260;28;20447;-74
2022/09/30 01:40:04;;;;;;;3.37;2.97;;;13.30;77.60;;;-142.21;100.00;112049.66;5050588;28;20436;-73
2022/09/30 01:42:41;;;;;;;5.23;3.50;;;13.30;77.80;;;-142.21;100.00;112049.66;5052452;28;20524;-74
2022/09/30 01:45:17;;;;;;;4.03;3.40;;;13.30;77.90;;;-142.21;100.00;112049.66;5051536;28;20854;-75
2022/09/30 01:47:56;;;;;;;6.80;4.70;;;13.40;78.00;;;-142.21;100.00;112049.66;5051930;28;20436;-73
2022/09/30 01:50:39;;;;;;;5.47;3.90;;;13.40;78.00;;;-142.21;100.00;112049.66;5000613;28;20492;-74
2022/09/30 01:53:20;;;;;;;4.37;3.87;;;13.40;78.00;;;-142.21;100.00;112049.66;5032374;28;20433;-74
2022/09/30 01:55:57;;;;;;;4.00;3.70;;;13.40;78.20;;;-142.21;100.00;112049.66;5051897;28;20440;-73
2022/09/30 01:58:33;;;;;;;7.43;4.20;;;13.40;78.00;;;-142.21;100.00;112049.66;5051366;28;21021;-74
2022/09/30 02:01:08;;;;;;;4.23;3.83;;;13.50;78.30;;;-142.21;100.00;112049.66;5051313;28;20456;-73
2022/09/30 02:03:45;;;;;;;5.87;4.10;;;13.50;78.30;;;-142.21;100.00;112049.66;5052059;28;21071;-73
2022/09/30 02:06:19;;;;;;;6.97;4.00;;;13.50;78.20;;;-142.21;100.00;112049.66;5052292;28;20432;-73
2022/09/30 02:08:54;;;;;;;4.93;4.10;;;13.50;78.30;;;-142.21;100.00;112049.66;5050809;28;20795;-73
2022/09/30 02:11:26;;;;;;;4.13;3.53;;;13.60;78.40;;;-142.21;100.00;112049.66;5051667;28;20471;-73
2022/09/30 02:14:02;;;;;;;4.40;4.00;;;13.60;78.60;;;-142.21;100.00;112049.66;5051233;28;20445;-73
2022/09/30 02:16:38;;;;;;;6.13;3.97;;;13.60;78.50;;;-142.21;100.00;112049.66;5051618;28;20436;-72
2022/09/30 02:19:19;;;;;;;4.00;3.50;;;13.70;78.60;;;-142.21;100.00;112049.66;5051792;28;20523;-72
2022/09/30 02:21:55;;;;;;;5.63;3.90;;;13.70;78.80;;;-142.21;100.00;112049.66;5050934;28;20441;-72
2022/09/30 02:24:28;;;;;;;7.70;4.70;;;13.70;78.90;;;-142.21;100.00;112049.66;5051961;28;20448;-74
2022/09/30 02:27:01;;;;;;;10.23;5.50;;;13.70;78.90;;;-142.21;100.00;112049.66;5050967;28;20452;-74
2022/09/30 02:29:35;;;;;;;8.47;6.03;;;13.70;78.90;;;-142.21;100.00;112049.66;5004967;28;20445;-73
2022/09/30 02:32:20;;;;;;;9.83;6.80;;;13.80;79.00;;;-142.21;100.00;112049.66;5037975;28;20459;-73
2022/09/30 02:34:53;;;;;;;14.63;7.90;;;13.80;79.00;;;-142.21;100.00;112049.66;5050866;28;20482;-73
2022/09/30 02:37:27;;;;;;;11.93;7.63;;;13.70;79.30;;;-142.21;100.00;112049.66;5051822;28;20440;-73
2022/09/30 02:40:04;;;;;;;12.17;7.73;;;13.70;79.20;;;-142.21;100.00;112049.66;5050674;28;20522;-74
2022/09/30 02:42:32;;;;;;;12.73;7.70;;;13.80;79.40;;;-142.21;100.00;112049.66;5040292;28;20528;-74
2022/09/30 02:45:07;;;;;;;10.63;7.20;;;13.80;79.30;;;-142.21;100.00;112049.66;5065943;28;20817;-73
2022/09/30 02:47:58;;;;;;;13.57;6.53;;;13.80;79.40;;;-142.21;100.00;112049.66;5051450;28;20452;-74
2022/09/30 02:50:34;;;;;;;14.57;7.20;;;13.80;79.30;;;-142.21;100.00;112049.66;5050597;28;20472;-73
2022/09/30 02:53:19;;;;;;;13.20;7.20;;;13.80;80.00;;;-142.21;100.00;112049.66;5036514;28;20463;-73
2022/09/30 02:56:14;;;;;;;11.33;7.30;;;13.80;79.40;;;-142.21;100.00;112049.66;5043860;28;20445;-73
2022/09/30 02:58:44;;;;;;;11.10;7.50;;;13.80;79.40;;;-142.21;100.00;112049.66;5038201;28;20479;-74
2022/09/30 03:01:15;;;;;;;11.73;7.90;;;13.80;79.20;;;-142.21;100.00;112049.66;5050656;28;20448;-74
2022/09/30 03:03:47;;;;;;;12.20;7.63;;;13.80;80.00;;;-142.21;100.00;112049.66;5050660;28;20440;-74
2022/09/30 03:06:16;;;;;;;12.47;8.10;;;13.80;79.20;;;-142.21;100.00;112049.66;5051089;28;20428;-74
2022/09/30 03:08:44;;;;;;;14.23;8.67;;;13.80;79.30;;;-142.21;100.00;112049.66;5050695;28;20534;-73
2022/09/30 03:11:18;;;;;;;16.30;9.63;;;13.80;79.50;;;-142.21;100.00;112049.66;5051141;28;20563;-73
2022/09/30 03:14:25;;;;;;;16.40;9.20;;;13.80;79.70;;;-142.21;100.00;112049.66;5050687;28;20922;-73
2022/09/30 03:17:25;;;;;;;16.30;8.80;;;13.70;80.00;;;-142.21;100.00;112049.66;5052831;28;20527;-73
2022/09/30 03:20:15;;;;;;;16.97;9.47;;;13.70;79.90;;;-142.21;100.00;112049.66;5041513;28;20924;-74
2022/09/30 03:23:17;;;;;;;12.57;7.73;;;13.70;79.90;;;-142.21;100.00;112049.66;5050728;28;20512;-73
2022/09/30 03:25:57;;;;;;;14.93;7.63;;;13.70;80.20;;;-142.21;100.00;112049.66;5050200;28;20940;-74
2022/09/30 03:28:33;;;;;;;12.83;7.70;;;13.50;80.50;;;-142.21;100.00;112049.66;5050836;28;20437;-75
2022/09/30 03:31:18;;;;;;;11.80;8.20;;;13.40;80.90;;;-142.21;100.00;112049.66;5038913;28;20494;-74
2022/09/30 03:33:55;;;;;;;12.47;8.37;;;13.40;80.70;;;-142.21;100.00;112049.66;5049827;28;20987;-74
2022/09/30 03:36:34;;;;;;;13.43;8.30;;;13.50;80.80;;;-142.21;100.00;112049.66;5050655;28;20440;-73
2022/09/30 03:39:16;;;;;;;11.07;7.17;;;13.50;80.90;;;-142.21;100.00;112049.66;5050402;28;20440;-75
2022/09/30 03:41:54;;;;;;;12.33;8.03;;;13.50;81.00;;;-142.21;100.00;112049.66;5050637;28;20883;-74
2022/09/30 03:44:29;;;;;;;13.57;8.33;;;13.40;80.90;;;-142.21;100.00;112049.66;5043313;28;20441;-74
2022/09/30 03:47:02;;;;;;;14.63;8.67;;;13.50;80.90;;;-142.21;100.00;112049.66;5031377;28;20428;-76
2022/09/30 03:49:35;;;;;;;11.90;8.23;;;13.60;81.00;;;-142.21;100.00;112049.66;5051060;28;20909;-75
2022/09/30 03:52:07;;;;;;;14.07;8.60;;;13.60;80.90;;;-142.21;100.00;112049.66;5050035;28;20990;-75
2022/09/30 03:54:47;;;;;;;14.27;8.87;;;13.60;80.70;;;-142.21;100.00;112049.66;5050347;28;20454;-75
2022/09/30 03:57:14;;;;;;;12.10;8.67;;;13.60;80.90;;;-142.21;100.00;112049.66;5051819;28;20468;-74
2022/09/30 03:59:42;;;;;;;14.67;9.17;;;13.60;80.70;;;-142.21;100.00;112049.66;5050927;28;20535;-74
2022/09/30 04:02:12;;;;;;;17.17;9.37;;;13.70;80.80;;;-142.21;100.00;112049.66;5050667;28;20483;-74
2022/09/30 04:04:40;;;;;;;17.03;10.53;;;13.70;80.80;;;-142.21;100.00;112049.66;5054747;28;20448;-74
2022/09/30 04:07:09;;;;;;;15.10;8.70;;;13.70;80.80;;;-142.21;100.00;112049.66;5051923;28;20448;-74
2022/09/30 04:09:40;;;;;;;14.37;8.80;;;13.70;80.70;;;-142.21;100.00;112049.66;5050663;28;20451;-75
2022/09/30 04:12:08;;;;;;;13.67;8.90;;;13.70;80.50;;;-142.21;100.00;112049.66;5049935;28;20485;-74
2022/09/30 04:14:36;;;;;;;13.20;9.07;;;13.80;80.50;;;-142.21;100.00;112049.66;5050669;28;20804;-75
2022/09/30 04:17:05;;;;;;;13.07;9.03;;;13.80;80.50;;;-142.21;100.00;112049.66;5014331;28;20448;-74
2022/09/30 04:19:36;;;;;;;14.23;8.90;;;13.70;80.30;;;-142.21;100.00;112049.66;5053908;28;20448;-74
2022/09/30 04:22:04;;;;;;;12.80;8.17;;;13.70;80.30;;;-142.21;100.00;112049.66;5053260;28;20433;-75
2022/09/30 04:24:31;;;;;;;14.47;9.10;;;13.80;80.50;;;-142.21;100.00;112049.66;5054037;28;20557;-74
2022/09/30 04:27:00;;;;;;;14.67;9.40;;;13.80;80.50;;;-142.21;100.00;112049.66;5053380;28;20956;-74
2022/09/30 04:29:29;;;;;;;14.20;8.97;;;13.70;80.50;;;-142.21;100.00;112049.66;5054177;28;20451;-75
2022/09/30 04:31:58;;;;;;;12.87;8.73;;;13.80;80.50;;;-142.21;100.00;112049.66;5052774;28;20483;-74
2022/09/30 04:34:25;;;;;;;12.97;8.47;;;13.70;80.20;;;-142.21;100.00;112049.66;5052552;28;20444;-78
2022/09/30 04:36:52;;;;;;;12.50;8.20;;;13.70;80.10;;;-142.21;100.00;112049.66;5056010;28;20448;-72
2022/09/30 04:39:19;;;;;;;11.40;7.73;;;13.80;80.20;;;-142.21;100.00;112049.66;5053929;28;21015;-74
2022/09/30 04:41:47;;;;;;;12.13;7.77;;;13.80;80.00;;;-142.21;100.00;112049.66;5053330;28;20791;-74
2022/09/30 04:44:15;;;;;;;12.90;8.00;;;13.80;80.00;;;-142.21;100.00;112049.66;5054065;28;20810;-74
2022/09/30 04:46:42;;;;;;;10.57;7.47;;;13.80;80.00;;;-142.21;100.00;112049.66;5053556;28;20448;-75
2022/09/30 04:49:09;;;;;;;14.27;8.53;;;13.80;80.00;;;-142.21;100.00;112049.66;5052979;28;20538;-75
2022/09/30 04:51:42;;;;;;;12.80;8.20;;;13.80;80.00;;;-142.21;100.00;112049.66;5062493;28;20486;-74
2022/09/30 04:54:09;;;;;;;12.80;8.50;;;13.70;80.10;;;-142.21;100.00;112049.66;5073445;28;20428;-75
2022/09/30 04:56:38;;;;;;;14.77;9.27;;;13.80;80.10;;;-142.21;100.00;112049.66;5060280;28;20551;-75
2022/09/30 04:59:05;;;;;;;12.10;8.67;;;13.80;80.00;;;-142.21;100.00;112049.66;5053053;28;20486;-75
2022/09/30 05:01:34;;;;;;;13.50;9.67;;;13.80;79.80;;;-142.21;100.00;112049.66;5053162;28;20533;-74
2022/09/30 05:04:02;;;;;;;12.00;8.60;;;13.80;79.70;;;-142.21;100.00;112049.66;5053323;28;20475;-74
2022/09/30 05:06:32;;;;;;;12.40;8.63;;;13.80;79.70;;;-142.21;100.00;112049.66;5051672;28;20448;-74
2022/09/30 05:08:59;;;;;;;11.27;8.30;;;13.80;79.60;;;-142.21;100.00;112049.66;5051504;28;20440;-74
2022/09/30 05:11:28;;;;;;;16.80;9.50;;;13.80;79.60;;;-142.21;100.00;112049.66;5053107;28;20515;-74
2022/09/30 05:13:55;;;;;;;12.17;8.93;;;13.80;79.60;;;-142.21;100.00;112049.66;5052282;28;20452;-74
2022/09/30 05:16:22;;;;;;;12.97;8.73;;;13.80;79.50;;;-142.21;100.00;112049.66;5053075;28;20452;-74
2022/09/30 05:18:51;;;;;;;11.70;8.87;;;13.80;79.70;;;-142.21;100.00;112049.66;5055181;28;20444;-73
2022/09/30 05:21:21;;;;;;;11.53;8.53;;;13.80;79.70;;;-142.21;100.00;112049.66;5053087;28;20444;-74
2022/09/30 05:23:48;;;;;;;14.67;9.17;;;13.80;79.80;;;-142.21;100.00;112049.66;5053020;28;20454;-76
2022/09/30 05:26:16;;;;;;;14.53;9.77;;;13.80;79.70;;;-142.21;100.00;112049.66;5052751;28;20520;-74
2022/09/30 05:28:45;;;;;;;12.97;9.13;;;13.80;79.60;;;-142.21;100.00;112049.66;5052651;28;20531;-75
2022/09/30 05:31:13;;;;;;;11.50;8.30;;;13.80;79.50;;;-142.21;100.00;112049.66;5052423;28;20495;-75
2022/09/30 05:33:40;;;;;;;12.90;9.03;;;13.80;79.50;;;-142.21;100.00;112049.66;5057759;28;20453;-74
2022/09/30 05:36:15;;;;;;;10.77;8.30;;;13.70;79.50;;;-142.21;100.00;112049.66;5051049;28;20994;-75
2022/09/30 05:38:42;;;;;;;12.40;8.53;;;13.70;79.60;;;-142.21;100.00;112049.66;5052851;28;20431;-74
2022/09/30 05:41:12;;;;;;;12.67;8.00;;;13.70;79.40;;;-142.21;100.00;112049.66;5052188;28;20540;-76
2022/09/30 05:43:40;;;;;;;11.07;7.80;;;13.70;79.40;;;-142.21;100.00;112049.66;5052301;28;20444;-74
2022/09/30 05:46:08;;;;;;;10.23;7.37;;;13.70;79.50;;;-142.21;100.00;112049.66;5051417;28;20940;-75
2022/09/30 05:48:35;;;;;;;9.30;7.43;;;13.70;79.60;;;-142.21;100.00;112049.66;5033562;28;20525;-76
2022/09/30 05:51:03;;;;;;;12.07;7.70;;;13.70;79.50;;;-142.21;100.00;112049.66;5051871;28;20484;-73
2022/09/30 05:53:37;;;;;;;10.23;7.57;;;13.70;79.50;;;-142.21;100.00;112049.66;5053567;28;20448;-74
2022/09/30 05:56:04;;;;;;;12.57;7.90;;;13.70;79.70;;;-142.21;100.00;112049.66;5051444;28;20975;-75
2022/09/30 05:58:32;;;;;;;11.40;8.10;;;13.70;79.80;;;-142.21;100.00;112049.66;5051861;28;20503;-75
2022/09/30 06:01:07;;;;;;;11.40;7.80;;;13.70;79.60;;;-142.21;100.00;112049.66;5051341;28;20456;-74
2022/09/30 06:03:35;;;;;;;11.70;7.67;;;13.70;79.60;;;-142.21;100.00;112049.66;5051900;28;20440;-75
2022/09/30 06:06:02;;;;;;;12.07;8.13;;;13.70;80.40;;;-142.21;100.00;112049.66;5052954;28;20433;-75
2022/09/30 06:08:30;;;;;;;12.67;8.93;;;13.80;79.80;;;-142.21;100.00;112049.66;5051761;28;20540;-74
2022/09/30 06:10:59;;;;;;;9.67;8.07;;;13.70;79.70;;;-142.21;100.00;112049.66;5051177;28;20871;-74
2022/09/30 06:13:27;;;;;;;11.33;8.40;;;13.80;79.40;;;-142.21;100.00;112049.66;5051914;28;20476;-74
2022/09/30 06:15:58;;;;;;;9.60;8.43;;;13.80;79.00;;;-142.21;100.00;112049.66;5050765;28;20941;-74
2022/09/30 06:18:26;;;;;;;11.57;10.40;;;13.80;78.60;;;-142.21;100.00;112049.66;5051923;28;20448;-75
2022/09/30 06:20:57;;;;;;;12.97;9.87;;;13.80;78.50;;;-142.21;100.00;112049.66;5070030;28;20939;-74
2022/09/30 06:23:24;;;;;;;11.13;10.00;;;13.80;78.60;;;-142.21;100.00;112049.66;5071617;28;20802;-74
2022/09/30 06:25:53;;;;;;;10.43;9.33;;;13.90;79.00;;;-142.21;100.00;112049.66;5053489;28;20502;-74
2022/09/30 06:28:23;;;;;;;11.13;9.07;;;13.90;79.00;;;-142.21;100.00;112049.66;5051878;28;20444;-75
2022/09/30 06:30:51;;;;;;;9.33;8.17;;;13.90;78.80;;;-142.21;100.00;112049.66;5051403;28;20547;-73
2022/09/30 06:33:18;;;;;;;8.67;7.60;;;14.00;78.70;;;-142.21;100.00;112049.66;5051757;28;20444;-74
2022/09/30 06:35:46;;;;;;;8.60;7.37;;;14.00;78.50;;;-142.21;100.00;112049.66;5053290;28;20531;-74
2022/09/30 06:38:15;;;;;;;9.87;7.50;;;14.00;78.70;;;-142.21;100.00;112049.66;5031593;28;20492;-75
2022/09/30 06:40:43;;;;;;;8.17;7.23;;;14.00;78.80;;;-142.21;100.00;112049.66;5045356;28;20983;-74
2022/09/30 06:43:11;;;;;;;8.63;7.67;;;14.00;78.60;;;-142.21;100.00;112049.66;5051117;28;20448;-74
2022/09/30 06:45:39;;;;;;;8.13;7.33;;;14.10;78.70;;;-142.21;100.00;112049.66;5051850;28;20448;-74
2022/09/30 06:48:08;;;;;;;9.47;7.53;;;14.10;79.00;;;-142.21;100.00;112049.66;5050119;28;20454;-74
2022/09/30 06:50:36;;;;;;;8.17;6.77;;;14.10;78.90;;;-142.21;100.00;112049.66;5057094;28;20873;-75
2022/09/30 06:53:07;;;;;;;8.73;7.80;;;14.10;78.80;;;-142.21;100.00;112049.66;5037571;28;20835;-74
2022/09/30 06:55:37;;;;;;;9.50;8.30;;;14.20;78.70;;;-142.21;100.00;112049.66;5051599;28;20428;-75
2022/09/30 06:58:07;;;;;;;10.47;9.37;;;14.30;78.60;;;-142.21;100.00;112049.66;5050621;28;20476;-76
2022/09/30 07:00:35;;;;;;;11.07;9.83;;;14.30;78.60;;;-142.21;100.00;112049.66;5049666;28;20948;-75
2022/09/30 07:03:08;;;;;;;12.00;10.77;;;14.40;78.50;;;-142.21;100.00;112049.66;5049591;28;20477;-75
2022/09/30 07:05:36;;;;;;;11.47;10.10;;;14.40;78.50;;;-142.21;100.00;112049.66;5051335;28;20472;-75
2022/09/30 07:08:04;;;;;;;12.27;9.83;;;14.50;78.40;;;-142.21;100.00;112049.66;5068480;28;20872;-74
2022/09/30 07:10:32;;;;;;;10.43;8.70;;;14.60;78.50;;;-142.21;100.00;112049.66;5057185;28;20459;-75
2022/09/30 07:13:01;;;;;;;10.60;9.03;;;14.70;78.00;;;-142.21;100.00;112049.66;5015679;28;20488;-74
2022/09/30 07:15:28;;;;;;;10.23;8.67;;;14.80;78.00;;;-142.21;100.00;112049.66;5050984;28;20484;-74
2022/09/30 07:17:56;;;;;;;9.37;8.47;;;14.90;77.70;;;-142.21;100.00;112049.66;5050773;28;20483;-74
2022/09/30 07:20:25;;;;;;;9.67;8.67;;;15.00;77.60;;;-142.21;100.00;112049.66;5050506;28;20449;-74
2022/09/30 07:22:53;;;;;;;9.40;7.77;;;15.10;77.00;;;-142.21;100.00;112049.66;5051102;28;20540;-75
2022/09/30 07:25:20;;;;;;;8.23;7.43;;;15.20;76.20;;;-142.21;100.00;112049.66;5054756;28;20501;-75
2022/09/30 07:27:47;;;;;;;8.20;7.43;;;15.30;75.50;;;-142.21;100.00;112049.66;5071441;28;20529;-75
2022/09/30 07:30:14;;;;;;;8.03;7.33;;;15.40;75.60;;;-142.21;100.00;112049.66;5061014;28;20476;-74
2022/09/30 07:32:42;;;;;;;8.47;7.50;;;15.40;75.60;;;-142.21;100.00;112049.66;5051236;28;20558;-74
2022/09/30 07:35:09;;;;;;;8.33;7.50;;;15.40;75.60;;;-142.21;100.00;112049.66;5050522;28;20447;-74
2022/09/30 07:37:38;;;;;;;8.10;7.30;;;15.50;75.10;;;-142.21;100.00;112049.66;5050166;28;20812;-74
2022/09/30 07:40:08;;;;;;;9.30;7.37;;;15.50;75.10;;;-142.21;100.00;112049.66;5050257;28;20456;-74
2022/09/30 07:42:44;;;;;;;8.40;7.50;;;15.50;75.20;;;-142.21;100.00;112049.66;5050691;28;20443;-73
2022/09/30 07:45:18;;;;;;;7.57;6.87;;;15.60;75.10;;;-142.21;100.00;112049.66;5049906;28;20444;-74
2022/09/30 07:47:45;;;;;;;9.50;6.53;;;15.60;75.10;;;-142.21;100.00;112049.66;5052673;28;20428;-74
2022/09/30 07:50:14;;;;;;;7.13;6.43;;;15.70;75.10;;;-142.21;100.00;112049.66;5051548;28;20448;-74
2022/09/30 07:52:43;;;;;;;8.70;7.10;;;15.70;74.70;;;-142.21;100.00;112049.66;5054666;28;20484;-74
2022/09/30 07:55:10;;;;;;;7.07;6.37;;;15.70;74.50;;;-142.21;100.00;112049.66;5060985;28;20474;-73
2022/09/30 07:57:38;;;;;;;7.63;7.00;;;15.80;74.20;;;-142.21;100.00;112049.66;5064996;28;20555;-73
2022/09/30 08:00:07;;;;;;;7.23;6.53;;;15.80;74.00;;;-142.21;100.00;112049.66;5053086;28;20476;-75
2022/09/30 08:02:34;;;;;;;7.80;6.57;;;15.90;74.20;;;-142.21;100.00;112049.66;5053135;28;20479;-74
2022/09/30 08:05:01;;;;;;;7.80;6.60;;;16.00;73.90;;;-142.21;100.00;112049.66;5054196;28;20448;-76
2022/09/30 08:07:31;;;;;;;7.20;6.50;;;16.00;74.30;;;-142.21;100.00;112049.66;5054805;28;20852;-73
2022/09/30 08:10:00;;;;;;;8.13;6.70;;;16.00;74.30;;;-142.21;100.00;112049.66;5054188;28;20448;-75
2022/09/30 08:12:29;;;;;;;8.43;6.27;;;16.10;73.80;;;-142.21;100.00;112049.66;5062407;28;20574;-76
2022/09/30 08:14:57;;;;;;;6.27;5.47;;;16.10;73.60;;;-142.21;100.00;112049.66;5066046;28;20444;-75
2022/09/30 08:17:25;;;;;;;8.40;6.43;;;16.20;73.90;;;-142.21;100.00;112049.66;5054535;28;20476;-76
2022/09/30 08:19:52;;;;;;;7.63;6.13;;;16.20;73.30;;;-142.21;100.00;112049.66;5053996;28;20452;-73
2022/09/30 08:22:20;;;;;;;7.77;6.20;;;16.30;72.90;;;-142.21;100.00;112049.66;5053498;28;20436;-73
2022/09/30 08:24:47;;;;;;;6.73;5.83;;;16.30;72.70;;;-142.21;100.00;112049.66;5056504;28;20459;-73
2022/09/30 08:27:17;;;;;;;7.80;6.10;;;16.40;72.30;;;-142.21;100.00;112049.66;5061330;28;20540;-73
2022/09/30 08:29:45;;;;;;;6.53;5.93;;;16.50;72.20;;;-142.21;100.00;112049.66;5053897;28;20475;-73
2022/09/30 08:32:12;;;;;;;7.50;6.10;;;16.50;72.00;;;-142.21;100.00;112049.66;5053679;28;20494;-72
2022/09/30 08:34:39;;;;;;;9.20;5.50;;;16.50;72.10;;;-142.21;100.00;112049.66;5054041;28;20455;-73
2022/09/30 08:37:08;;;;;;;8.90;5.90;;;16.50;72.40;;;-142.21;100.00;112049.66;5053548;28;20480;-73
2022/09/30 08:39:36;;;;;;;7.07;5.80;;;16.50;72.00;;;-142.21;100.00;112049.66;5053134;28;20951;-73
2022/09/30 08:42:35;;;;;;;9.23;5.90;;;16.50;71.80;;;-142.21;100.00;112049.66;5053550;28;20445;-71
2022/09/30 08:45:16;;;;;;;7.27;6.10;;;16.40;71.50;;;-142.21;100.00;112049.66;5047993;28;20893;-72
2022/09/30 08:47:55;;;;;;;7.93;5.80;;;16.40;71.80;;;-142.21;100.00;112049.66;5054173;28;20819;-72
2022/09/30 08:50:34;;;;;;;8.93;6.27;;;16.40;72.10;;;-142.21;100.00;112049.66;5034592;28;20936;-72
2022/09/30 08:53:10;;;;;;;7.10;5.73;;;16.30;71.90;;;-142.21;100.00;112049.66;5052959;28;20468;-73
2022/09/30 08:55:43;;;;;;;6.53;5.93;;;16.30;72.00;;;-142.21;100.00;112049.66;5056104;28;20474;-71
2022/09/30 08:58:25;;;;;;;7.20;5.47;;;16.30;72.00;;;-142.21;100.00;112049.66;5063248;28;20510;-71
2022/09/30 09:01:01;;;;;;;7.40;6.60;;;16.40;72.20;;;-142.21;100.00;112049.66;5073780;28;20850;-73
2022/09/30 09:03:32;;;;;;;7.43;5.70;;;16.30;71.40;;;-142.21;100.00;112049.66;5073220;28;20427;-72
2022/09/30 09:06:21;;;;;;;6.43;5.67;;;16.20;71.60;;;-142.21;100.00;112049.66;5073557;28;20453;-71
2022/09/30 09:09:11;;;;;;;7.10;6.27;;;16.20;71.40;;;-142.21;100.00;112049.66;5073633;28;20527;-72
2022/09/30 09:12:01;;;;;;;8.07;5.63;;;16.10;71.40;;;-142.21;100.00;112049.66;5058092;28;20475;-72
2022/09/30 09:14:51;;;;;;;6.57;5.83;;;16.10;71.90;;;-142.21;100.00;112049.66;5063891;28;20645;-71
2022/09/30 09:17:37;;;;;;;6.63;6.03;;;16.10;71.60;;;-142.21;100.00;112049.66;5056570;28;20436;-72
2022/09/30 09:20:14;;;;;;;8.40;6.10;;;16.00;71.90;;;-142.21;100.00;112049.66;5052990;28;20425;-72
2022/09/30 09:22:43;;;;;;;6.73;5.53;;;16.00;71.40;;;-142.21;100.00;112049.66;5053494;28;20523;-72
2022/09/30 09:25:16;;;;;;;7.43;5.90;;;16.00;72.40;;;-142.21;100.00;112049.66;5052641;28;20505;-71
2022/09/30 09:27:54;;;;;;;7.07;5.93;;;16.10;72.40;;;-142.21;100.00;112049.66;5034324;28;20531;-73
2022/09/30 09:30:26;;;;;;;6.13;5.53;;;16.30;72.50;;;-142.21;100.00;112049.66;5046923;28;20520;-72
2022/09/30 09:32:56;;;;;;;7.50;6.70;;;16.40;72.40;;;-142.21;100.00;112049.66;5055079;28;20510;-72
2022/09/30 09:35:40;;;;;;;6.93;5.47;;;16.50;72.20;;;-142.21;100.00;112049.66;5072247;28;20427;-72
2022/09/30 09:38:28;;;;;;;7.53;6.00;;;16.60;71.90;;;-142.21;100.00;112049.66;5071372;28;20432;-71
2022/09/30 09:41:17;;;;;;;8.00;5.77;;;16.80;71.10;;;-142.21;99.07;112049.66;5072482;28;20423;-72
2022/09/30 09:43:59;;;;;;;6.87;5.67;;;16.90;70.30;;;-142.21;99.67;112049.66;5073145;28;20426;-72
2022/09/30 09:46:39;;;;;;;6.87;5.60;;;17.10;70.80;;;-142.21;98.99;112049.66;5068383;28;20449;-72
2022/09/30 09:49:33;;;;;;;6.70;6.10;;;17.30;70.50;;;-142.21;97.95;112049.66;5066614;28;20525;-71
2022/09/30 09:52:49;;;;;;;6.93;5.43;;;17.50;69.60;;;-142.21;96.73;112049.66;5070114;28;20466;-71
2022/09/30 09:55:22;;;;;;;8.27;5.57;;;17.60;68.90;;;-142.21;94.87;112049.66;5071425;28;20461;-73
2022/09/30 09:58:05;;;;;;;6.87;5.40;;;17.80;67.90;;;-142.21;95.98;112049.66;5072621;28;20566;-71
2022/09/30 10:03:22;;;;;;;7.93;5.77;;;18.00;67.80;;;-142.21;95.67;112049.66;5061262;28;20827;-72
2022/09/30 10:06:07;;;;;;;6.63;5.03;;;18.10;68.10;;;-142.21;94.48;112049.66;5060689;28;20437;-71
2022/09/30 10:08:38;;;;;;;7.47;4.93;;;18.40;67.60;;;-142.21;92.41;112049.66;5032750;28;20502;-73
2022/09/30 10:11:17;;;;;;;5.93;5.20;;;18.70;67.00;;;-142.21;92.76;112049.66;5031847;28;20433;-72
2022/09/30 10:13:46;;;;;;;8.20;5.03;;;18.90;66.90;;;-142.21;90.98;112049.66;5031957;28;20520;-72
2022/09/30 10:16:34;;;;;;;5.97;5.20;;;19.10;66.00;;;-142.21;90.19;112049.66;5038503;28;20479;-72
2022/09/30 10:19:05;;;;;;;7.57;5.07;;;19.40;64.80;;;-142.21;88.24;112049.66;5059730;28;20499;-75